createdAt,value
2023-04-18T00:00:10.051Z,16.70
2023-04-18T00:02:38.483Z,13.43
2023-04-18T00:05:07.478Z,12.23
2023-04-18T00:07:35.318Z,12.52
2023-04-18T00:10:03.456Z,13.65
2023-04-18T00:12:29.917Z,13.13
2023-04-18T00:14:58.577Z,13.48
2023-04-18T00:17:27.628Z,12.43
2023-04-18T00:19:56.291Z,11.68
2023-04-18T00:22:22.799Z,11.35
2023-04-18T00:24:50.632Z,8.43
2023-04-18T00:27:20.473Z,13.23
2023-04-18T00:29:47.487Z,11.30
2023-04-18T00:32:14.646Z,9.73
2023-04-18T00:34:41.224Z,11.18
2023-04-18T00:37:08.200Z,13.00
2023-04-18T00:39:37.853Z,12.68
2023-04-18T00:42:04.290Z,6.60
2023-04-18T00:44:31.498Z,8.35
2023-04-18T00:46:58.240Z,9.60
2023-04-18T00:49:25.633Z,7.90
2023-04-18T00:51:52.499Z,9.15
2023-04-18T00:54:19.146Z,7.93
2023-04-18T00:56:46.792Z,13.93
2023-04-18T00:59:13.896Z,7.88
2023-04-18T01:01:40.471Z,8.73
2023-04-18T01:04:08.203Z,6.25
2023-04-18T01:06:35.378Z,8.57
2023-04-18T01:09:02.205Z,6.40
2023-04-18T01:11:28.597Z,9.13
2023-04-18T01:14:13.391Z,9.63
2023-04-18T01:16:39.955Z,15.00
2023-04-18T01:19:06.694Z,7.32
2023-04-18T01:21:36.124Z,8.60
2023-04-18T01:24:16.562Z,7.85
2023-04-18T01:26:49.221Z,7.77
2023-04-18T01:29:15.812Z,15.82
2023-04-18T01:31:42.315Z,7.68
2023-04-18T01:34:08.999Z,7.80
2023-04-18T01:36:36.616Z,8.98
2023-04-18T01:39:03.489Z,9.70
2023-04-18T01:41:32.480Z,6.35
2023-04-18T01:43:59.752Z,8.68
2023-04-18T01:46:26.421Z,7.55
2023-04-18T01:48:53.144Z,6.85
2023-04-18T01:51:19.663Z,6.53
2023-04-18T01:53:46.046Z,6.97
2023-04-18T01:56:12.865Z,8.27
2023-04-18T01:58:39.485Z,7.45
2023-04-18T02:01:05.869Z,8.27
2023-04-18T02:03:32.407Z,8.33
2023-04-18T02:06:01.043Z,8.23
2023-04-18T02:08:27.485Z,6.45
2023-04-18T02:10:53.848Z,9.30
2023-04-18T02:13:20.282Z,6.18
2023-04-18T02:15:46.649Z,7.33
2023-04-18T02:18:13.252Z,6.07
2023-04-18T02:20:39.972Z,8.50
2023-04-18T02:23:07.011Z,9.30
2023-04-18T02:25:33.444Z,9.77
2023-04-18T02:28:00.073Z,8.90
2023-04-18T02:30:27.066Z,9.60
2023-04-18T02:32:54.518Z,6.05
2023-04-18T02:35:21.332Z,6.57
2023-04-18T02:37:47.692Z,8.13
2023-04-18T02:40:14.336Z,8.90
2023-04-18T02:42:40.924Z,8.15
2023-04-18T02:45:08.219Z,10.38
2023-04-18T02:47:46.964Z,8.95
2023-04-18T02:50:18.072Z,7.32
2023-04-18T02:52:44.447Z,10.90
2023-04-18T02:55:10.925Z,8.00
2023-04-18T02:57:37.352Z,7.57
2023-04-18T03:00:05.174Z,9.82
2023-04-18T03:02:31.618Z,6.07
2023-04-18T03:04:58.137Z,9.17
2023-04-18T03:07:24.507Z,7.10
2023-04-18T03:09:50.884Z,9.23
2023-04-18T03:12:17.400Z,9.75
2023-04-18T03:14:44.515Z,9.07
2023-04-18T03:17:11.411Z,7.03
2023-04-18T03:19:37.858Z,8.85
2023-04-18T03:22:04.191Z,9.98
2023-04-18T03:24:30.794Z,10.57
2023-04-18T03:26:57.853Z,7.65
2023-04-18T03:29:24.318Z,9.43
2023-04-18T03:31:50.753Z,11.00
2023-04-18T03:34:17.141Z,7.35
2023-04-18T03:36:44.068Z,8.38
2023-04-18T03:39:12.917Z,8.52
2023-04-18T03:41:39.325Z,10.30
2023-04-18T03:44:05.702Z,8.32
2023-04-18T03:46:32.239Z,7.53
2023-04-18T03:48:58.680Z,11.20
2023-04-18T03:51:25.170Z,10.10
2023-04-18T03:53:51.528Z,12.43
2023-04-18T03:56:18.089Z,9.95
2023-04-18T03:58:44.449Z,9.57
2023-04-18T04:01:10.816Z,8.95
2023-04-18T04:03:37.389Z,9.77
2023-04-18T04:06:04.294Z,9.37
2023-04-18T04:08:30.791Z,8.05
2023-04-18T04:10:57.214Z,8.35
2023-04-18T04:13:23.754Z,8.55
2023-04-18T04:15:50.540Z,6.68
2023-04-18T04:18:16.946Z,11.43
2023-04-18T04:20:45.646Z,12.73
2023-04-18T04:23:12.026Z,8.93
2023-04-18T04:25:39.185Z,9.02
2023-04-18T04:28:06.751Z,12.95
2023-04-18T04:30:33.675Z,11.30
2023-04-18T04:33:01.606Z,12.38
2023-04-18T04:35:28.328Z,9.82
2023-04-18T04:37:54.806Z,8.77
2023-04-18T04:40:22.820Z,11.35
2023-04-18T04:42:49.358Z,10.53
2023-04-18T04:45:15.787Z,9.98
2023-04-18T04:47:42.200Z,7.95
2023-04-18T04:50:14.593Z,10.75
2023-04-18T04:52:42.297Z,8.65
2023-04-18T04:55:08.931Z,7.97
2023-04-18T04:57:35.805Z,12.48
2023-04-18T05:00:02.205Z,9.80
2023-04-18T05:02:28.762Z,11.63
2023-04-18T05:04:55.362Z,13.07
2023-04-18T05:07:21.852Z,9.57
2023-04-18T05:09:48.269Z,12.55
2023-04-18T05:12:14.627Z,12.27
2023-04-18T05:14:41.019Z,8.70
2023-04-18T05:17:07.751Z,10.98
2023-04-18T05:19:34.307Z,9.33
2023-04-18T05:22:00.785Z,10.23
2023-04-18T05:24:27.257Z,8.52
2023-04-18T05:26:53.778Z,9.65
2023-04-18T05:29:20.339Z,8.73
2023-04-18T05:31:46.838Z,9.90
2023-04-18T05:34:13.640Z,11.45
2023-04-18T05:36:40.462Z,11.70
2023-04-18T05:39:07.084Z,10.68
2023-04-18T05:41:33.513Z,8.82
2023-04-18T05:44:05.257Z,10.60
2023-04-18T05:46:43.445Z,9.55
2023-04-18T05:49:09.888Z,8.45
2023-04-18T05:51:36.296Z,11.43
2023-04-18T05:54:02.877Z,9.00
2023-04-18T05:56:29.427Z,11.23
2023-04-18T05:58:55.912Z,10.93
2023-04-18T06:01:22.931Z,9.25
2023-04-18T06:03:49.541Z,8.77
2023-04-18T06:06:16.258Z,9.15
2023-04-18T06:08:42.781Z,10.67
2023-04-18T06:11:09.219Z,10.27
2023-04-18T06:13:36.735Z,8.68
2023-04-18T06:16:03.643Z,10.52
2023-04-18T06:18:30.045Z,12.38
2023-04-18T06:20:56.443Z,10.47
2023-04-18T06:23:22.841Z,11.00
2023-04-18T06:25:49.352Z,13.18
2023-04-18T06:28:16.131Z,10.38
2023-04-18T06:30:42.533Z,9.75
2023-04-18T06:33:12.089Z,13.73
2023-04-18T06:35:38.624Z,13.50
2023-04-18T06:38:05.026Z,9.50
2023-04-18T06:40:31.530Z,11.45
2023-04-18T06:42:58.060Z,10.93
2023-04-18T06:45:24.612Z,9.27
2023-04-18T06:47:52.319Z,9.75
2023-04-18T06:50:18.847Z,10.65
2023-04-18T06:52:45.645Z,7.53
2023-04-18T06:55:13.958Z,8.75
2023-04-18T06:57:41.719Z,9.47
2023-04-18T07:00:10.012Z,8.93
2023-04-18T07:02:38.490Z,8.68
2023-04-18T07:05:06.000Z,7.95
2023-04-18T07:07:33.462Z,14.65
2023-04-18T07:09:59.904Z,9.00
2023-04-18T07:12:27.210Z,8.70
2023-04-18T07:14:54.326Z,7.95
2023-04-18T07:17:20.825Z,10.45
2023-04-18T07:19:47.621Z,11.63
2023-04-18T07:22:14.080Z,7.23
2023-04-18T07:24:40.599Z,6.97
2023-04-18T07:27:07.521Z,9.77
2023-04-18T07:29:33.889Z,7.47
2023-04-18T07:32:00.459Z,9.00
2023-04-18T07:34:29.585Z,8.10
2023-04-18T07:36:57.597Z,8.82
2023-04-18T07:39:23.985Z,7.13
2023-04-18T07:41:50.524Z,7.72
2023-04-18T07:44:16.990Z,7.10
2023-04-18T07:46:43.648Z,6.80
2023-04-18T07:49:10.099Z,6.63
2023-04-18T07:51:36.448Z,7.20
2023-04-18T07:54:02.978Z,7.55
2023-04-18T07:56:29.724Z,7.72
2023-04-18T07:58:56.265Z,7.53
2023-04-18T08:01:24.613Z,8.45
2023-04-18T08:03:51.875Z,6.90
2023-04-18T08:06:18.411Z,10.18
2023-04-18T08:08:44.905Z,6.07
2023-04-18T08:11:11.410Z,7.30
2023-04-18T08:13:37.941Z,5.70
2023-04-18T08:16:04.621Z,6.55
2023-04-18T08:18:31.160Z,5.10
2023-04-18T08:20:57.613Z,7.03
2023-04-18T08:23:24.005Z,7.03
2023-04-18T08:25:50.946Z,6.25
2023-04-18T08:28:17.635Z,5.65
2023-04-18T08:30:48.606Z,6.45
2023-04-18T08:33:16.155Z,5.20
2023-04-18T08:35:43.094Z,5.83
2023-04-18T08:38:09.662Z,5.63
2023-04-18T08:40:37.500Z,5.53
2023-04-18T08:43:09.315Z,5.53
2023-04-18T08:45:36.806Z,8.15
2023-04-18T08:48:03.905Z,5.57
2023-04-18T08:50:31.881Z,6.45
2023-04-18T08:53:00.944Z,5.25
2023-04-18T08:55:27.436Z,10.88
2023-04-18T08:57:55.307Z,7.90
2023-04-18T09:00:22.702Z,4.77
2023-04-18T09:02:49.467Z,7.22
2023-04-18T09:05:19.968Z,5.65
2023-04-18T09:07:51.414Z,4.05
2023-04-18T09:10:33.278Z,5.65
2023-04-18T09:13:02.933Z,4.67
2023-04-18T09:15:29.836Z,7.28
2023-04-18T09:18:02.618Z,5.35
2023-04-18T09:20:38.056Z,4.78
2023-04-18T09:23:10.802Z,3.70
2023-04-18T09:25:44.491Z,5.40
2023-04-18T09:28:29.113Z,6.25
2023-04-18T09:31:10.125Z,6.22
2023-04-18T09:33:37.052Z,5.47
2023-04-18T09:36:23.587Z,5.97
2023-04-18T09:38:54.509Z,5.83
2023-04-18T09:41:23.671Z,4.82
2023-04-18T09:43:50.346Z,6.13
2023-04-18T09:46:17.962Z,5.88
2023-04-18T09:48:44.578Z,6.13
2023-04-18T09:51:14.726Z,4.40
2023-04-18T09:53:44.586Z,4.57
2023-04-18T09:56:27.671Z,3.83
2023-04-18T09:59:06.160Z,4.07
2023-04-18T10:01:33.927Z,4.03
2023-04-18T10:04:03.347Z,3.80
2023-04-18T10:06:33.453Z,3.53
2023-04-18T10:09:02.868Z,3.80
2023-04-18T10:11:31.659Z,3.78
2023-04-18T10:14:02.485Z,4.82
2023-04-18T10:16:29.428Z,4.13
2023-04-18T10:18:56.463Z,4.97
2023-04-18T10:21:22.854Z,3.17
2023-04-18T10:23:50.274Z,3.53
2023-04-18T10:26:16.843Z,3.13
2023-04-18T10:28:57.730Z,4.23
2023-04-18T10:31:29.047Z,3.20
2023-04-18T10:36:28.061Z,6.32
2023-04-18T10:39:19.222Z,4.07
2023-04-18T10:41:50.988Z,4.37
2023-04-18T10:44:23.050Z,3.20
2023-04-18T10:46:53.097Z,5.22
2023-04-18T10:49:30.293Z,5.03
2023-04-18T10:52:00.698Z,3.92
2023-04-18T10:54:47.604Z,3.13
2023-04-18T10:57:15.201Z,3.90
2023-04-18T10:59:44.009Z,6.85
2023-04-18T11:02:30.018Z,4.78
2023-04-18T11:05:01.540Z,7.70
2023-04-18T11:07:39.658Z,4.97
2023-04-18T11:10:07.800Z,4.82
2023-04-18T11:12:37.507Z,3.90
2023-04-18T11:15:13.021Z,4.68
2023-04-18T11:17:40.304Z,4.60
2023-04-18T11:20:09.235Z,5.10
2023-04-18T11:22:51.972Z,4.30
2023-04-18T11:25:19.826Z,4.22
2023-04-18T11:27:48.942Z,4.93
2023-04-18T11:30:15.642Z,5.30
2023-04-18T11:32:42.131Z,5.67
2023-04-18T11:35:11.201Z,5.60
2023-04-18T11:37:39.151Z,6.57
2023-04-18T11:40:08.393Z,6.30
2023-04-18T11:42:37.315Z,7.82
2023-04-18T11:45:04.165Z,8.57
2023-04-18T11:47:33.909Z,6.65
2023-04-18T11:50:07.992Z,6.10
2023-04-18T11:52:36.034Z,8.15
2023-04-18T11:55:19.515Z,5.80
2023-04-18T11:57:56.200Z,6.80
2023-04-18T12:00:41.584Z,8.82
2023-04-18T12:03:16.536Z,7.07
2023-04-18T12:05:43.229Z,7.55
2023-04-18T12:08:11.977Z,6.57
2023-04-18T12:10:46.331Z,7.60
2023-04-18T12:13:13.016Z,7.32
2023-04-18T12:15:42.218Z,6.35
2023-04-18T12:18:09.067Z,7.82
2023-04-18T12:20:45.826Z,7.72
2023-04-18T12:23:48.081Z,6.60
2023-04-18T12:26:18.205Z,7.90
2023-04-18T12:28:45.830Z,7.80
2023-04-18T12:31:12.842Z,8.55
2023-04-18T12:33:39.346Z,7.53
2023-04-18T12:36:08.166Z,7.53
2023-04-18T12:38:35.608Z,8.38
2023-04-18T12:41:02.689Z,7.97
2023-04-18T12:43:29.267Z,7.60
2023-04-18T12:45:55.903Z,9.13
2023-04-18T12:48:22.580Z,8.97
2023-04-18T12:50:49.010Z,8.85
2023-04-18T12:53:15.437Z,7.47
2023-04-18T12:55:41.832Z,8.32
2023-04-18T12:58:08.224Z,7.55
2023-04-18T13:00:34.870Z,8.50
2023-04-18T13:03:01.619Z,8.77
2023-04-18T13:05:31.666Z,8.35
2023-04-18T13:08:15.248Z,7.90
2023-04-18T13:10:43.280Z,9.32
2023-04-18T13:13:09.718Z,9.93
2023-04-18T13:15:36.156Z,11.18
2023-04-18T13:18:05.163Z,9.98
2023-04-18T13:20:32.605Z,11.48
2023-04-18T13:22:59.187Z,10.30
2023-04-18T13:25:26.576Z,11.33
2023-04-18T13:27:53.328Z,10.23
2023-04-18T13:30:19.943Z,11.30
2023-04-18T13:32:47.218Z,11.35
2023-04-18T13:35:16.462Z,11.60
2023-04-18T13:37:43.047Z,10.27
2023-04-18T13:40:09.974Z,11.90
2023-04-18T13:42:38.664Z,14.93
2023-04-18T13:45:05.722Z,11.68
2023-04-18T13:47:32.097Z,11.13
2023-04-18T13:49:58.671Z,9.50
2023-04-18T13:52:25.634Z,10.30
2023-04-18T13:54:52.068Z,10.75
2023-04-18T13:57:18.559Z,10.43
2023-04-18T13:59:44.966Z,8.43
2023-04-18T14:02:11.579Z,10.10
2023-04-18T14:04:38.321Z,10.32
2023-04-18T14:07:06.430Z,11.13
2023-04-18T14:09:33.267Z,10.40
2023-04-18T14:11:59.814Z,12.27
2023-04-18T14:14:26.364Z,10.03
2023-04-18T14:16:53.646Z,10.85
2023-04-18T14:19:20.238Z,8.07
2023-04-18T14:21:47.554Z,12.32
2023-04-18T14:24:14.257Z,9.02
2023-04-18T14:26:40.865Z,9.23
2023-04-18T14:29:07.279Z,8.38
2023-04-18T14:31:33.633Z,11.82
2023-04-18T14:34:00.138Z,10.88
2023-04-18T14:36:27.130Z,9.45
2023-04-18T14:38:54.581Z,13.57
2023-04-18T14:41:21.091Z,11.43
2023-04-18T14:43:47.788Z,12.18
2023-04-18T14:46:16.515Z,10.55
2023-04-18T14:48:49.796Z,12.95
2023-04-18T14:51:16.949Z,11.43
2023-04-18T14:53:44.761Z,9.43
2023-04-18T14:56:11.225Z,9.93
2023-04-18T14:58:37.757Z,10.93
2023-04-18T15:01:04.559Z,11.10
2023-04-18T15:03:31.226Z,7.93
2023-04-18T15:05:57.971Z,7.57
2023-04-18T15:08:24.546Z,9.77
2023-04-18T15:10:50.997Z,10.88
2023-04-18T15:13:17.581Z,9.40
2023-04-18T15:15:51.602Z,11.87
2023-04-18T15:18:18.038Z,9.38
2023-04-18T15:20:44.499Z,8.13
2023-04-18T15:23:13.710Z,9.82
2023-04-18T15:25:41.583Z,10.63
2023-04-18T15:28:08.028Z,11.17
2023-04-18T15:30:34.524Z,9.25
2023-04-18T15:33:02.242Z,10.30
2023-04-18T15:35:28.724Z,10.10
2023-04-18T15:37:55.538Z,7.85
2023-04-18T15:40:22.096Z,7.70
2023-04-18T15:42:49.699Z,8.60
2023-04-18T15:45:16.186Z,9.00
2023-04-18T15:47:42.626Z,6.32
2023-04-18T15:50:09.589Z,8.50
2023-04-18T15:52:36.681Z,7.30
2023-04-18T15:55:04.930Z,8.32
2023-04-18T15:57:31.945Z,8.25
2023-04-18T15:59:59.422Z,8.52
2023-04-18T16:02:26.506Z,9.52
2023-04-18T16:04:53.081Z,7.47
2023-04-18T16:07:19.470Z,8.52
2023-04-18T16:09:45.900Z,8.68
2023-04-18T16:12:12.316Z,7.47
2023-04-18T16:14:38.758Z,6.53
2023-04-18T16:17:05.176Z,9.30
2023-04-18T16:19:33.308Z,8.27
2023-04-18T16:22:00.903Z,6.75
2023-04-18T16:24:27.461Z,6.68
2023-04-18T16:26:55.498Z,7.00
2023-04-18T16:29:24.113Z,7.03
2023-04-18T16:31:51.713Z,8.45
2023-04-18T16:34:18.382Z,7.40
2023-04-18T16:36:44.834Z,10.07
2023-04-18T16:39:11.446Z,9.85
2023-04-18T16:41:37.894Z,6.10
2023-04-18T16:44:04.634Z,6.68
2023-04-18T16:46:32.314Z,6.32
2023-04-18T16:48:59.253Z,6.00
2023-04-18T16:51:26.380Z,7.07
2023-04-18T16:53:52.810Z,8.10
2023-04-18T16:56:19.172Z,6.97
2023-04-18T16:58:45.917Z,7.85
2023-04-18T17:01:12.522Z,8.98
2023-04-18T17:03:39.092Z,6.15
2023-04-18T17:06:05.899Z,7.60
2023-04-18T17:08:33.600Z,6.57
2023-04-18T17:11:01.853Z,7.60
2023-04-18T17:13:31.322Z,6.18
2023-04-18T17:15:58.003Z,5.85
2023-04-18T17:18:24.554Z,6.67
2023-04-18T17:20:50.964Z,5.93
2023-04-18T17:23:17.326Z,6.32
2023-04-18T17:25:43.736Z,5.88
2023-04-18T17:28:10.223Z,6.72
2023-04-18T17:30:41.487Z,7.23
2023-04-18T17:33:09.312Z,6.88
2023-04-18T17:35:36.033Z,7.05
2023-04-18T17:38:02.382Z,7.25
2023-04-18T17:40:28.927Z,8.70
2023-04-18T17:42:55.296Z,8.07
2023-04-18T17:45:21.800Z,7.00
2023-04-18T17:47:49.898Z,7.78
2023-04-18T17:50:16.756Z,7.07
2023-04-18T17:52:43.914Z,7.57
2023-04-18T17:55:10.323Z,6.93
2023-04-18T17:57:37.270Z,9.20
2023-04-18T18:00:09.919Z,7.97
2023-04-18T18:02:36.695Z,6.90
2023-04-18T18:05:03.398Z,6.85
2023-04-18T18:07:31.139Z,6.73
2023-04-18T18:09:58.124Z,7.50
2023-04-18T18:12:24.472Z,6.85
2023-04-18T18:14:50.838Z,6.38
2023-04-18T18:17:17.311Z,8.18
2023-04-18T18:19:43.780Z,9.07
2023-04-18T18:22:10.382Z,8.48
2023-04-18T18:24:36.761Z,7.72
2023-04-18T18:27:03.148Z,12.35
2023-04-18T18:29:29.674Z,7.35
2023-04-18T18:31:56.124Z,8.33
2023-04-18T18:34:22.706Z,9.30
2023-04-18T18:36:49.106Z,9.35
2023-04-18T18:39:16.432Z,7.82
2023-04-18T18:41:43.256Z,8.13
2023-04-18T18:44:09.668Z,8.40
2023-04-18T18:46:36.577Z,10.80
2023-04-18T18:49:03.519Z,9.25
2023-04-18T18:51:29.964Z,6.50
2023-04-18T18:53:57.129Z,7.10
2023-04-18T18:56:23.802Z,6.37
2023-04-18T18:58:50.218Z,7.55
2023-04-18T19:01:16.827Z,7.13
2023-04-18T19:03:43.437Z,8.20
2023-04-18T19:06:10.065Z,9.43
2023-04-18T19:08:36.466Z,7.33
2023-04-18T19:11:02.872Z,7.30
2023-04-18T19:13:29.303Z,7.13
2023-04-18T19:15:55.710Z,7.68
2023-04-18T19:18:22.530Z,8.90
2023-04-18T19:20:51.747Z,7.77
2023-04-18T19:23:19.288Z,6.78
2023-04-18T19:25:46.570Z,7.55
2023-04-18T19:28:14.369Z,7.32
2023-04-18T19:30:42.011Z,7.70
2023-04-18T19:33:08.610Z,4.83
2023-04-18T19:35:37.676Z,5.68
2023-04-18T19:38:04.480Z,4.97
2023-04-18T19:40:31.074Z,4.57
2023-04-18T19:42:57.735Z,5.18
2023-04-18T19:45:24.464Z,7.53
2023-04-18T19:47:51.002Z,11.88
2023-04-18T19:50:17.560Z,4.82
2023-04-18T19:52:44.092Z,6.00
2023-04-18T19:55:10.474Z,4.97
2023-04-18T19:57:41.328Z,5.77
2023-04-18T20:00:10.087Z,4.95
2023-04-18T20:02:36.834Z,5.15
2023-04-18T20:05:04.845Z,4.80
2023-04-18T20:07:31.699Z,5.45
2023-04-18T20:09:58.141Z,6.90
2023-04-18T20:12:24.563Z,5.95
2023-04-18T20:14:51.337Z,7.32
2023-04-18T20:17:17.983Z,6.07
2023-04-18T20:19:47.111Z,6.45
2023-04-18T20:22:14.807Z,6.43
2023-04-18T20:24:41.290Z,4.97
2023-04-18T20:27:07.746Z,5.90
2023-04-18T20:29:34.154Z,5.40
2023-04-18T20:32:00.595Z,6.85
2023-04-18T20:34:26.999Z,5.30
2023-04-18T20:36:53.472Z,7.25
2023-04-18T20:39:20.130Z,6.53
2023-04-18T20:41:50.694Z,6.07
2023-04-18T20:44:19.036Z,8.07
2023-04-18T20:46:45.432Z,6.37
2023-04-18T20:49:11.916Z,7.40
2023-04-18T20:51:38.360Z,7.30
2023-04-18T20:54:05.343Z,6.35
2023-04-18T20:56:32.129Z,6.55
2023-04-18T20:58:58.487Z,6.90
2023-04-18T21:01:24.945Z,5.82
2023-04-18T21:03:51.459Z,4.90
2023-04-18T21:06:19.166Z,8.32
2023-04-18T21:08:45.796Z,5.63
2023-04-18T21:11:12.215Z,6.33
2023-04-18T21:13:38.717Z,5.93
2023-04-18T21:16:07.908Z,5.63
2023-04-18T21:18:34.471Z,6.85
2023-04-18T21:21:00.937Z,5.18
2023-04-18T21:23:27.412Z,6.33
2023-04-18T21:25:53.790Z,6.95
2023-04-18T21:28:20.372Z,5.30
2023-04-18T21:30:46.878Z,4.70
2023-04-18T21:33:13.494Z,5.07
2023-04-18T21:35:39.978Z,5.17
2023-04-18T21:38:06.402Z,5.75
2023-04-18T21:40:33.322Z,6.40
2023-04-18T21:42:59.782Z,6.80
2023-04-18T21:45:26.310Z,6.05
2023-04-18T21:47:52.849Z,7.20
2023-04-18T21:50:19.453Z,4.40
2023-04-18T21:52:45.869Z,5.28
2023-04-18T21:55:12.325Z,5.20
2023-04-18T21:57:38.753Z,6.30
2023-04-18T22:00:08.504Z,4.70
2023-04-18T22:02:36.603Z,5.90
2023-04-18T22:05:03.153Z,5.82
2023-04-18T22:07:29.586Z,5.93
2023-04-18T22:09:58.480Z,6.10
2023-04-18T22:12:26.359Z,6.40
2023-04-18T22:14:52.940Z,6.72
2023-04-18T22:17:20.911Z,6.50
2023-04-18T22:19:49.806Z,5.65
2023-04-18T22:22:16.531Z,6.32
2023-04-18T22:24:43.585Z,8.93
2023-04-18T22:27:11.308Z,7.25
2023-04-18T22:29:37.791Z,5.43
2023-04-18T22:32:04.395Z,8.25
2023-04-18T22:34:30.854Z,5.78
2023-04-18T22:36:57.226Z,5.67
2023-04-18T22:39:24.721Z,7.28
2023-04-18T22:41:51.092Z,5.53
2023-04-18T22:44:17.784Z,7.82
2023-04-18T22:46:44.647Z,5.20
2023-04-18T22:49:11.282Z,6.33
2023-04-18T22:51:38.157Z,5.57
2023-04-18T22:54:05.233Z,13.02
2023-04-18T22:56:31.619Z,5.22
2023-04-18T22:58:57.956Z,6.47
2023-04-18T23:01:24.395Z,6.43
2023-04-18T23:03:51.100Z,8.95
2023-04-18T23:06:17.615Z,6.38
2023-04-18T23:08:44.007Z,5.20
2023-04-18T23:11:11.152Z,6.45
2023-04-18T23:13:37.656Z,6.93
2023-04-18T23:16:04.376Z,5.93
2023-04-18T23:18:30.858Z,6.90
2023-04-18T23:20:57.320Z,6.60
2023-04-18T23:23:23.850Z,6.25
2023-04-18T23:25:50.236Z,5.77
2023-04-18T23:28:17.152Z,5.13
2023-04-18T23:30:43.955Z,6.53
2023-04-18T23:33:10.545Z,5.50
2023-04-18T23:35:37.502Z,6.15
2023-04-18T23:38:03.880Z,7.33
2023-04-18T23:40:30.440Z,7.35
2023-04-18T23:42:57.118Z,6.85
2023-04-18T23:45:24.364Z,5.80
2023-04-18T23:47:51.433Z,7.55
2023-04-18T23:50:17.938Z,6.27
2023-04-18T23:52:44.318Z,7.68
2023-04-18T23:55:10.838Z,7.53
2023-04-18T23:57:37.382Z,6.60
